createdAt,value
2019-05-02T00:00:12.726Z,10.90
2019-05-02T00:02:41.815Z,11.00
2019-05-02T00:05:12.115Z,10.80
2019-05-02T00:07:42.763Z,10.70
2019-05-02T00:10:14.437Z,10.70
2019-05-02T00:12:44.822Z,10.70
2019-05-02T00:15:14.607Z,10.70
2019-05-02T00:17:43.214Z,10.70
2019-05-02T00:20:12.195Z,10.60
2019-05-02T00:22:40.668Z,10.60
2019-05-02T00:25:11.024Z,10.60
2019-05-02T00:27:39.943Z,10.60
2019-05-02T00:30:09.505Z,10.60
2019-05-02T00:32:38.136Z,10.50
2019-05-02T00:35:07.140Z,10.60
2019-05-02T00:37:35.675Z,10.60
2019-05-02T00:40:06.469Z,10.60
2019-05-02T00:42:35.071Z,10.60
2019-05-02T00:45:04.242Z,10.60
2019-05-02T00:47:42.343Z,10.70
2019-05-02T00:50:12.481Z,10.60
2019-05-02T00:52:41.195Z,10.60
2019-05-02T00:55:09.882Z,10.60
2019-05-02T00:57:38.363Z,10.60
2019-05-02T01:00:08.355Z,10.50
2019-05-02T01:02:40.548Z,10.50
2019-05-02T01:05:08.972Z,10.40
2019-05-02T01:07:37.509Z,10.30
2019-05-02T01:10:07.496Z,10.20
2019-05-02T01:12:39.826Z,10.20
2019-05-02T01:15:08.490Z,10.20
2019-05-02T01:17:36.836Z,10.20
2019-05-02T01:20:07.059Z,10.20
2019-05-02T01:22:35.510Z,10.00
2019-05-02T01:25:06.383Z,9.80
2019-05-02T01:27:42.640Z,9.60
2019-05-02T01:30:22.076Z,9.60
2019-05-02T01:33:06.445Z,9.60
2019-05-02T01:35:38.840Z,9.50
2019-05-02T01:38:26.522Z,9.50
2019-05-02T01:40:54.763Z,9.50
2019-05-02T01:43:25.985Z,9.60
2019-05-02T01:45:54.725Z,9.60
2019-05-02T01:48:23.618Z,9.60
2019-05-02T01:50:52.296Z,9.70
2019-05-02T01:53:20.733Z,9.70
2019-05-02T01:55:51.907Z,9.80
2019-05-02T01:58:20.828Z,9.90
2019-05-02T02:00:49.934Z,9.80
2019-05-02T02:03:18.527Z,9.70
2019-05-02T02:05:47.173Z,9.40
2019-05-02T02:08:15.874Z,9.20
2019-05-02T02:10:44.432Z,9.20
2019-05-02T02:13:13.081Z,9.20
2019-05-02T02:15:41.640Z,9.20
2019-05-02T02:18:10.239Z,9.30
2019-05-02T02:20:52.450Z,9.40
2019-05-02T02:23:34.939Z,9.50
2019-05-02T02:26:11.899Z,9.60
2019-05-02T02:28:41.051Z,9.60
2019-05-02T02:31:09.596Z,9.60
2019-05-02T02:33:41.074Z,9.60
2019-05-02T02:36:08.541Z,9.70
2019-05-02T02:38:37.159Z,9.70
2019-05-02T02:41:13.262Z,9.60
2019-05-02T02:43:36.100Z,9.60
2019-05-02T02:46:12.965Z,9.60
2019-05-02T02:48:42.798Z,9.60
2019-05-02T02:51:22.173Z,9.60
2019-05-02T02:53:41.881Z,9.60
2019-05-02T02:56:10.484Z,9.70
2019-05-02T02:58:45.705Z,9.60
2019-05-02T03:01:09.367Z,9.60
2019-05-02T03:03:37.949Z,9.70
2019-05-02T03:06:08.134Z,9.70
2019-05-02T03:08:45.305Z,9.70
2019-05-02T03:11:07.933Z,9.70
2019-05-02T03:13:51.223Z,9.70
2019-05-02T03:16:10.094Z,9.80
2019-05-02T03:18:40.745Z,9.80
2019-05-02T03:21:13.274Z,9.80
2019-05-02T03:23:39.517Z,9.80
2019-05-02T03:26:15.021Z,9.80
2019-05-02T03:28:38.784Z,9.80
2019-05-02T03:31:21.758Z,9.90
2019-05-02T03:33:52.571Z,9.90
2019-05-02T03:36:25.971Z,9.90
2019-05-02T03:38:38.352Z,9.80
2019-05-02T03:41:13.566Z,9.90
2019-05-02T03:43:37.223Z,9.90
2019-05-02T03:46:05.663Z,9.90
2019-05-02T03:48:34.296Z,9.90
2019-05-02T03:51:05.110Z,9.90
2019-05-02T03:53:33.427Z,9.90
2019-05-02T03:56:10.472Z,9.90
2019-05-02T03:58:32.430Z,9.90
2019-05-02T04:01:03.391Z,9.80
2019-05-02T04:03:34.227Z,9.90
2019-05-02T04:06:01.461Z,9.80
2019-05-02T04:08:30.694Z,9.80
2019-05-02T04:11:16.810Z,9.80
2019-05-02T04:13:45.478Z,9.80
2019-05-02T04:16:15.505Z,9.80
2019-05-02T04:18:54.633Z,9.90
2019-05-02T04:21:14.983Z,9.90
2019-05-02T04:23:44.418Z,9.90
2019-05-02T04:26:15.159Z,10.00
2019-05-02T04:28:45.559Z,10.00
2019-05-02T04:31:14.063Z,10.00
2019-05-02T04:33:42.814Z,10.00
2019-05-02T04:36:15.142Z,10.00
2019-05-02T04:38:46.913Z,9.90
2019-05-02T04:41:21.329Z,9.70
2019-05-02T04:43:54.570Z,9.60
2019-05-02T04:46:22.351Z,9.80
2019-05-02T04:48:48.315Z,9.80
2019-05-02T04:51:16.292Z,9.80
2019-05-02T04:53:45.438Z,9.90
2019-05-02T04:56:13.621Z,10.00
2019-05-02T04:58:42.089Z,10.00
2019-05-02T05:01:10.840Z,10.10
2019-05-02T05:03:39.458Z,10.20
2019-05-02T05:06:12.189Z,10.20
2019-05-02T05:08:41.227Z,10.30
2019-05-02T05:11:08.770Z,10.30
2019-05-02T05:13:37.573Z,10.20
2019-05-02T05:16:08.169Z,10.10
2019-05-02T05:18:37.817Z,10.10
2019-05-02T05:21:10.235Z,10.10
2019-05-02T05:23:44.583Z,10.10
2019-05-02T05:26:13.262Z,10.00
2019-05-02T05:28:44.341Z,10.00
2019-05-02T05:31:16.476Z,10.00
2019-05-02T05:33:42.203Z,9.90
2019-05-02T05:36:10.829Z,9.90
2019-05-02T05:38:40.780Z,9.90
2019-05-02T05:41:12.898Z,9.90
2019-05-02T05:43:39.810Z,10.00
2019-05-02T05:46:12.358Z,10.00
2019-05-02T05:48:40.739Z,10.10
2019-05-02T05:51:11.901Z,10.10
2019-05-02T05:53:38.963Z,10.20
2019-05-02T05:56:08.042Z,10.40
2019-05-02T05:58:39.758Z,10.60
2019-05-02T06:01:10.164Z,10.90
2019-05-02T06:03:41.951Z,11.20
2019-05-02T06:06:09.748Z,11.50
2019-05-02T06:08:37.891Z,11.90
2019-05-02T06:11:06.383Z,12.20
2019-05-02T06:13:37.927Z,12.40
2019-05-02T06:16:05.394Z,12.70
2019-05-02T06:18:36.432Z,12.70
2019-05-02T06:21:08.711Z,12.70
2019-05-02T06:23:36.417Z,12.60
2019-05-02T06:26:07.779Z,12.60
2019-05-02T06:28:36.234Z,12.80
2019-05-02T06:31:07.146Z,13.00
2019-05-02T06:33:35.969Z,13.30
2019-05-02T06:36:04.594Z,13.60
2019-05-02T06:38:33.282Z,13.80
2019-05-02T06:41:01.810Z,13.90
2019-05-02T06:43:30.304Z,13.80
2019-05-02T06:45:58.886Z,13.70
2019-05-02T06:48:27.422Z,13.60
2019-05-02T06:50:57.025Z,13.60
2019-05-02T06:53:25.583Z,13.60
2019-05-02T06:55:54.215Z,13.50
2019-05-02T06:58:22.863Z,13.60
2019-05-02T07:00:58.172Z,13.50
2019-05-02T07:03:21.839Z,13.70
2019-05-02T07:05:50.425Z,13.80
2019-05-02T07:08:19.316Z,13.90
2019-05-02T07:10:47.950Z,14.00
2019-05-02T07:13:16.554Z,14.10
2019-05-02T07:15:49.479Z,14.20
2019-05-02T07:18:19.852Z,14.20
2019-05-02T07:20:48.421Z,14.30
2019-05-02T07:23:18.348Z,14.40
2019-05-02T07:25:47.304Z,14.50
2019-05-02T07:28:15.820Z,14.60
2019-05-02T07:30:44.471Z,14.60
2019-05-02T07:33:13.026Z,14.70
2019-05-02T07:35:41.570Z,14.60
2019-05-02T07:38:10.176Z,14.70
2019-05-02T07:40:38.996Z,14.70
2019-05-02T07:43:07.513Z,14.80
2019-05-02T07:45:40.334Z,14.90
2019-05-02T07:48:06.248Z,14.90
2019-05-02T07:50:34.815Z,14.90
2019-05-02T07:53:04.549Z,14.80
2019-05-02T07:55:35.334Z,14.80
2019-05-02T07:58:06.895Z,15.10
2019-05-02T08:00:37.042Z,15.30
2019-05-02T08:03:05.261Z,15.30
2019-05-02T08:05:34.049Z,15.40
2019-05-02T08:08:02.544Z,15.60
2019-05-02T08:10:31.098Z,15.50
2019-05-02T08:12:59.675Z,15.50
2019-05-02T08:15:28.215Z,15.60
2019-05-02T08:17:56.840Z,15.70
2019-05-02T08:20:25.449Z,16.00
2019-05-02T08:22:53.959Z,16.20
2019-05-02T08:25:22.437Z,16.40
2019-05-02T08:27:58.166Z,16.40
2019-05-02T08:30:28.423Z,16.50
2019-05-02T08:32:56.950Z,16.50
2019-05-02T08:35:28.054Z,16.60
2019-05-02T08:37:56.403Z,16.70
2019-05-02T08:40:25.262Z,16.70
2019-05-02T08:42:53.959Z,16.90
2019-05-02T08:45:22.575Z,16.90
2019-05-02T08:47:51.155Z,16.80
2019-05-02T08:50:20.240Z,16.70
2019-05-02T08:52:48.921Z,17.00
2019-05-02T08:55:17.488Z,17.30
2019-05-02T08:57:46.115Z,17.50
2019-05-02T09:00:15.019Z,17.30
2019-05-02T09:02:43.555Z,17.60
2019-05-02T09:05:12.094Z,17.70
2019-05-02T09:07:42.920Z,17.50
2019-05-02T09:10:11.054Z,17.90
2019-05-02T09:12:42.236Z,18.10
2019-05-02T09:15:11.791Z,18.10
2019-05-02T09:17:46.521Z,18.00
2019-05-02T09:20:18.676Z,18.20
2019-05-02T09:22:41.957Z,18.50
2019-05-02T09:25:12.565Z,18.60
2019-05-02T09:27:42.022Z,18.90
2019-05-02T09:30:17.266Z,19.20
2019-05-02T09:32:42.918Z,19.10
2019-05-02T09:35:11.907Z,19.10
2019-05-02T09:37:41.942Z,18.80
2019-05-02T09:40:16.361Z,19.00
2019-05-02T09:42:43.055Z,19.30
2019-05-02T09:45:19.709Z,19.50
2019-05-02T09:47:58.265Z,19.40
2019-05-02T09:50:26.635Z,19.60
2019-05-02T09:52:52.246Z,19.70
2019-05-02T09:55:22.463Z,19.70
2019-05-02T09:57:51.980Z,19.70
2019-05-02T10:00:36.248Z,19.80
2019-05-02T10:03:05.418Z,20.00
2019-05-02T10:05:34.109Z,20.10
2019-05-02T10:08:06.757Z,20.10
2019-05-02T10:10:37.174Z,19.90
2019-05-02T10:13:05.205Z,19.50
2019-05-02T10:15:33.916Z,19.40
2019-05-02T10:18:10.570Z,19.20
2019-05-02T10:20:36.140Z,19.30
2019-05-02T10:23:03.625Z,19.40
2019-05-02T10:25:38.496Z,19.80
2019-05-02T10:28:02.690Z,20.10
2019-05-02T10:30:35.854Z,20.10
2019-05-02T10:33:03.447Z,20.20
2019-05-02T10:35:37.206Z,20.10
2019-05-02T10:38:03.887Z,20.40
2019-05-02T10:40:32.384Z,20.80
2019-05-02T10:43:02.765Z,20.60
2019-05-02T10:45:32.076Z,20.20
2019-05-02T10:48:02.288Z,19.90
2019-05-02T10:50:35.475Z,20.30
2019-05-02T10:53:11.013Z,20.40
2019-05-02T10:55:34.427Z,20.50
2019-05-02T10:58:03.039Z,20.70
2019-05-02T11:00:38.496Z,20.30
2019-05-02T11:03:24.203Z,20.10
2019-05-02T11:06:05.418Z,20.20
2019-05-02T11:08:31.922Z,20.20
2019-05-02T11:11:03.146Z,20.30
2019-05-02T11:13:33.713Z,20.50
2019-05-02T11:16:21.631Z,20.60
2019-05-02T11:18:57.668Z,20.90
2019-05-02T11:21:26.161Z,21.10
2019-05-02T11:23:54.777Z,21.40
2019-05-02T11:26:25.034Z,21.50
2019-05-02T11:28:53.667Z,21.50
2019-05-02T11:31:22.359Z,21.50
2019-05-02T11:33:52.659Z,21.50
2019-05-02T11:36:22.453Z,21.30
2019-05-02T11:39:00.419Z,21.40
2019-05-02T11:41:22.455Z,21.40
2019-05-02T11:43:54.054Z,21.60
2019-05-02T11:46:22.104Z,21.50
2019-05-02T11:48:56.302Z,21.60
2019-05-02T11:51:22.647Z,21.60
2019-05-02T11:53:52.720Z,21.90
2019-05-02T11:56:22.240Z,22.00
2019-05-02T11:58:52.878Z,21.90
2019-05-02T12:01:34.958Z,21.80
2019-05-02T12:03:52.628Z,21.80
2019-05-02T12:06:22.504Z,22.10
2019-05-02T12:08:52.552Z,22.20
2019-05-02T12:11:22.888Z,22.60
2019-05-02T12:13:56.592Z,22.40
2019-05-02T12:16:22.886Z,22.40
2019-05-02T12:18:53.585Z,22.20
2019-05-02T12:21:22.836Z,22.30
2019-05-02T12:23:52.612Z,22.30
2019-05-02T12:26:22.104Z,22.60
2019-05-02T12:28:52.644Z,22.40
2019-05-02T12:31:26.841Z,22.20
2019-05-02T12:33:56.402Z,22.30
2019-05-02T12:36:24.957Z,22.20
2019-05-02T12:38:53.584Z,22.40
2019-05-02T12:41:25.044Z,22.40
2019-05-02T12:43:52.610Z,22.40
2019-05-02T12:46:22.204Z,22.20
2019-05-02T12:48:51.965Z,22.30
2019-05-02T12:51:22.594Z,22.10
2019-05-02T12:53:52.805Z,22.00
2019-05-02T12:56:22.893Z,22.10
2019-05-02T12:58:52.922Z,22.00
2019-05-02T13:01:22.163Z,22.10
2019-05-02T13:04:04.678Z,21.90
2019-05-02T13:06:33.209Z,21.60
2019-05-02T13:09:03.190Z,21.60
2019-05-02T13:11:36.946Z,21.70
2019-05-02T13:14:04.375Z,21.70
2019-05-02T13:16:33.667Z,21.80
2019-05-02T13:19:06.067Z,22.00
2019-05-02T13:21:41.902Z,22.10
2019-05-02T13:24:07.243Z,22.10
2019-05-02T13:26:36.807Z,22.40
2019-05-02T13:29:05.438Z,22.10
2019-05-02T13:31:35.676Z,22.00
2019-05-02T13:34:06.449Z,22.00
2019-05-02T13:36:42.425Z,22.10
2019-05-02T13:39:18.638Z,22.10
2019-05-02T13:41:47.327Z,21.80
2019-05-02T13:44:17.607Z,21.60
2019-05-02T13:46:46.115Z,21.50
2019-05-02T13:49:14.605Z,21.50
2019-05-02T13:51:43.143Z,21.40
2019-05-02T13:54:12.556Z,21.40
2019-05-02T13:56:48.469Z,21.40
2019-05-02T13:59:18.161Z,21.60
2019-05-02T14:01:48.900Z,21.60
2019-05-02T14:04:17.604Z,21.70
2019-05-02T14:06:46.290Z,21.60
2019-05-02T14:09:22.407Z,21.60
2019-05-02T14:12:07.315Z,21.50
2019-05-02T14:14:35.915Z,21.50
2019-05-02T14:17:04.815Z,21.70
2019-05-02T14:19:33.333Z,21.80
2019-05-02T14:22:02.979Z,21.90
2019-05-02T14:24:32.279Z,21.90
2019-05-02T14:27:02.579Z,22.00
2019-05-02T14:29:32.980Z,22.10
2019-05-02T14:32:02.719Z,21.90
2019-05-02T14:34:33.217Z,21.90
2019-05-02T14:37:02.097Z,21.90
2019-05-02T14:39:32.526Z,21.90
2019-05-02T14:42:02.051Z,21.90
2019-05-02T14:45:00.292Z,22.00
2019-05-02T14:47:02.191Z,21.90
2019-05-02T14:49:32.142Z,21.80
2019-05-02T14:52:02.943Z,21.70
2019-05-02T14:54:32.432Z,21.50
2019-05-02T14:57:05.427Z,21.20
2019-05-02T14:59:33.951Z,21.20
2019-05-02T15:02:07.462Z,21.00
2019-05-02T15:04:38.162Z,20.80
2019-05-02T15:07:05.722Z,20.20
2019-05-02T15:09:36.092Z,19.40
2019-05-02T15:12:13.529Z,18.70
2019-05-02T15:14:35.645Z,18.10
2019-05-02T15:17:05.037Z,17.70
2019-05-02T15:19:35.013Z,17.30
2019-05-02T15:22:03.653Z,17.10
2019-05-02T15:24:36.192Z,16.90
2019-05-02T15:27:11.428Z,16.70
2019-05-02T15:29:32.975Z,16.40
2019-05-02T15:32:19.503Z,16.30
2019-05-02T15:35:06.317Z,16.30
2019-05-02T15:37:35.946Z,16.20
2019-05-02T15:42:36.833Z,16.20
2019-05-02T15:45:06.801Z,16.20
2019-05-02T15:47:37.075Z,16.30
2019-05-02T15:50:05.967Z,16.20
2019-05-02T15:52:38.892Z,16.10
2019-05-02T15:55:07.706Z,16.10
2019-05-02T15:57:43.007Z,16.00
2019-05-02T16:00:09.690Z,15.90
2019-05-02T16:02:38.151Z,15.80
2019-05-02T16:05:07.876Z,15.80
2019-05-02T16:07:38.097Z,15.80
2019-05-02T16:10:10.631Z,15.80
2019-05-02T16:12:41.737Z,15.70
2019-05-02T16:15:18.191Z,15.80
2019-05-02T16:17:42.214Z,15.80
2019-05-02T16:20:15.818Z,15.60
2019-05-02T16:22:49.529Z,15.50
2019-05-02T16:25:14.796Z,15.50
2019-05-02T16:27:44.992Z,15.40
2019-05-02T16:30:19.350Z,15.30
2019-05-02T16:32:49.707Z,15.10
2019-05-02T16:35:22.046Z,15.00
2019-05-02T16:37:54.677Z,15.10
2019-05-02T16:40:29.138Z,15.00
2019-05-02T16:42:51.809Z,15.00
2019-05-02T16:45:22.194Z,15.00
2019-05-02T16:47:58.597Z,15.00
2019-05-02T16:50:31.852Z,14.90
2019-05-02T16:52:56.271Z,14.80
2019-05-02T16:55:26.700Z,14.60
2019-05-02T16:57:56.750Z,14.60
2019-05-02T17:00:25.952Z,14.50
2019-05-02T17:02:54.466Z,14.50
2019-05-02T17:05:23.231Z,14.50
2019-05-02T17:08:10.550Z,14.40
2019-05-02T17:10:56.708Z,14.40
2019-05-02T17:13:27.591Z,14.30
2019-05-02T17:15:53.883Z,14.30
2019-05-02T17:18:22.848Z,14.30
2019-05-02T17:20:54.964Z,14.30
2019-05-02T17:23:22.235Z,14.20
2019-05-02T17:25:52.162Z,14.30
2019-05-02T17:28:22.335Z,14.20
2019-05-02T17:30:52.533Z,14.20
2019-05-02T17:33:21.720Z,14.20
2019-05-02T17:35:52.317Z,14.20
2019-05-02T17:38:27.665Z,14.20
2019-05-02T17:40:53.871Z,14.20
2019-05-02T17:43:22.725Z,14.10
2019-05-02T17:45:51.471Z,14.00
2019-05-02T17:48:20.214Z,14.10
2019-05-02T17:50:59.293Z,14.00
2019-05-02T17:53:26.412Z,14.00
2019-05-02T17:55:55.019Z,14.00
2019-05-02T17:58:23.669Z,14.00
2019-05-02T18:00:56.927Z,13.90
2019-05-02T18:03:31.087Z,13.90
2019-05-02T18:05:54.565Z,13.80
2019-05-02T18:08:23.412Z,13.90
2019-05-02T18:10:58.507Z,13.90
2019-05-02T18:13:22.823Z,13.80
2019-05-02T18:15:53.503Z,13.80
2019-05-02T18:18:22.187Z,13.70
2019-05-02T18:20:52.707Z,13.60
2019-05-02T18:23:25.747Z,13.60
2019-05-02T18:25:52.552Z,13.70
2019-05-02T18:28:25.904Z,13.60
2019-05-02T18:30:57.041Z,13.60
2019-05-02T18:33:22.976Z,13.60
2019-05-02T18:35:52.593Z,13.60
2019-05-02T18:38:22.415Z,13.50
2019-05-02T18:40:52.107Z,13.50
2019-05-02T18:43:22.290Z,13.50
2019-05-02T18:45:51.538Z,13.50
2019-05-02T18:48:21.884Z,13.50
2019-05-02T18:50:52.683Z,13.30
2019-05-02T18:53:24.243Z,13.20
2019-05-02T18:55:52.116Z,13.10
2019-05-02T18:58:22.608Z,13.00
2019-05-02T19:00:51.980Z,13.00
2019-05-02T19:03:22.855Z,12.90
2019-05-02T19:05:56.398Z,12.90
2019-05-02T19:08:30.767Z,12.80
2019-05-02T19:11:04.592Z,12.80
2019-05-02T19:13:22.400Z,12.80
2019-05-02T19:15:53.287Z,12.70
2019-05-02T19:18:21.491Z,12.70
2019-05-02T19:20:57.337Z,12.70
2019-05-02T19:23:23.958Z,12.60
2019-05-02T19:25:52.908Z,12.60
2019-05-02T19:28:36.771Z,12.60
2019-05-02T19:31:06.746Z,12.60
2019-05-02T19:33:37.353Z,12.60
2019-05-02T19:36:03.551Z,12.50
2019-05-02T19:38:34.780Z,12.50
2019-05-02T19:41:05.471Z,12.50
2019-05-02T19:43:35.025Z,12.50
2019-05-02T19:46:03.388Z,12.50
2019-05-02T19:48:32.921Z,12.50
2019-05-02T19:51:02.577Z,12.40
2019-05-02T19:53:32.402Z,12.50
2019-05-02T19:56:02.947Z,12.40
2019-05-02T19:58:36.863Z,12.40
2019-05-02T20:01:03.117Z,12.40
2019-05-02T20:03:32.352Z,12.40
2019-05-02T20:06:04.867Z,12.40
2019-05-02T20:08:32.561Z,12.30
2019-05-02T20:11:02.067Z,12.30
2019-05-02T20:13:32.632Z,12.30
2019-05-02T20:16:22.457Z,12.40
2019-05-02T20:18:52.521Z,12.30
2019-05-02T20:21:32.677Z,12.20
2019-05-02T20:24:04.063Z,12.20
2019-05-02T20:26:32.521Z,12.20
2019-05-02T20:29:01.987Z,12.10
2019-05-02T20:31:32.188Z,12.10
2019-05-02T20:34:02.514Z,12.10
2019-05-02T20:36:32.129Z,12.10
2019-05-02T20:39:02.319Z,12.10
2019-05-02T20:41:30.999Z,12.00
2019-05-02T20:43:59.564Z,12.00
2019-05-02T20:46:28.146Z,12.00
2019-05-02T20:48:56.614Z,12.00
2019-05-02T20:51:25.215Z,12.00
2019-05-02T20:53:54.102Z,12.00
2019-05-02T20:56:23.126Z,12.00
2019-05-02T20:58:52.615Z,12.10
2019-05-02T21:01:21.719Z,12.00
2019-05-02T21:03:52.157Z,12.00
2019-05-02T21:06:36.470Z,11.90
2019-05-02T21:08:54.261Z,12.00
2019-05-02T21:11:24.139Z,12.00
2019-05-02T21:13:52.745Z,12.00
2019-05-02T21:16:21.814Z,11.90
2019-05-02T21:18:50.575Z,11.90
2019-05-02T21:21:21.981Z,11.90
2019-05-02T21:23:52.787Z,11.90
2019-05-02T21:26:22.031Z,11.80
2019-05-02T21:28:52.177Z,11.80
2019-05-02T21:31:22.500Z,11.80
2019-05-02T21:33:51.953Z,11.80
2019-05-02T21:36:22.548Z,11.80
2019-05-02T21:38:52.143Z,11.80
2019-05-02T21:41:22.170Z,11.90
2019-05-02T21:43:51.861Z,11.80
2019-05-02T21:46:22.403Z,11.80
2019-05-02T21:48:52.693Z,11.90
2019-05-02T21:51:26.129Z,11.80
2019-05-02T21:54:12.220Z,11.80
2019-05-02T21:56:43.028Z,11.80
2019-05-02T21:59:12.467Z,11.80
2019-05-02T22:01:45.982Z,11.70
2019-05-02T22:04:14.496Z,11.70
2019-05-02T22:06:43.399Z,11.70
2019-05-02T22:09:13.500Z,11.70
2019-05-02T22:11:42.885Z,11.70
2019-05-02T22:14:13.367Z,11.70
2019-05-02T22:16:42.591Z,11.70
2019-05-02T22:19:11.482Z,11.60
2019-05-02T22:21:40.025Z,11.60
2019-05-02T22:24:11.782Z,11.60
2019-05-02T22:26:38.832Z,11.60
2019-05-02T22:29:07.344Z,11.60
2019-05-02T22:31:36.043Z,11.60
2019-05-02T22:34:04.726Z,11.60
2019-05-02T22:36:33.356Z,11.60
2019-05-02T22:39:06.179Z,11.60
2019-05-02T22:41:34.863Z,11.60
2019-05-02T22:44:04.551Z,11.60
2019-05-02T22:46:43.569Z,11.50
2019-05-02T22:49:14.719Z,11.50
2019-05-02T22:51:44.069Z,11.60
2019-05-02T22:54:24.260Z,11.60
2019-05-02T22:56:44.510Z,11.50
2019-05-02T22:59:13.062Z,11.50
2019-05-02T23:01:42.359Z,11.60
2019-05-02T23:04:12.795Z,11.60
2019-05-02T23:06:43.877Z,11.60
2019-05-02T23:09:12.763Z,11.60
2019-05-02T23:11:42.550Z,11.50
2019-05-02T23:14:12.852Z,11.50
2019-05-02T23:16:42.772Z,11.50
2019-05-02T23:19:12.248Z,11.50
2019-05-02T23:21:42.184Z,11.50
2019-05-02T23:24:14.616Z,11.50
2019-05-02T23:26:51.785Z,11.50
2019-05-02T23:29:22.459Z,11.50
2019-05-02T23:31:51.807Z,11.50
2019-05-02T23:34:23.384Z,11.50
2019-05-02T23:36:52.256Z,11.50
2019-05-02T23:39:21.087Z,11.50
2019-05-02T23:41:49.669Z,11.40
2019-05-02T23:44:22.830Z,11.40
2019-05-02T23:47:09.375Z,11.40
2019-05-02T23:49:38.319Z,11.40
2019-05-02T23:52:06.910Z,11.40
2019-05-02T23:54:35.395Z,11.40
2019-05-02T23:57:04.087Z,11.40
2019-05-02T23:59:32.551Z,11.40
